Time;durP1;ratioP1;P1;durP2;ratioP2;P2;SDS_P1;SDS_P2;PMS_P1;PMS_P2;Temp;Humidity;BMP_temperature;BMP_pressure;BME280_temperature;BME280_humidity;BME280_pressure;Samples;Min_cycle;Max_cycle;Signal;HPM_P1;HPM_P2
2021/12/05 00:18:58;;;;;;;;;;;;;;;5.19;90.01;97359.47;5037579;28;19927;-67
2021/12/05 00:24:07;;;;;;;;;;;;;;;5.14;90.69;97366.47;5040946;28;19924;-67
2021/12/05 00:26:34;;;;;;;;;;;;;;;5.32;93.41;97365.81;5041146;28;20406;-67
2021/12/05 00:29:20;;;;;;;;;;;;;;;5.21;93.18;97373.84;5041409;28;20321;-67
2021/12/05 00:31:57;;;;;;;;;;;;;;;5.68;92.21;97378.06;5041473;28;19916;-67
2021/12/05 01:16:43;;;;;;;;;;;;;;;5.55;100.00;97382.81;5045182;28;20008;-68
2021/12/05 01:19:08;;;;;;;;;;;;;;;5.24;100.00;97383.97;5042056;28;20848;-67
2021/12/05 01:21:35;;;;;;;;;;;;;;;5.79;100.00;97386.16;5017401;28;19921;-67
2021/12/05 01:26:53;;;;;;;;;;;;;;;5.80;100.00;97381.88;5020702;28;19956;-67
2021/12/05 01:37:16;;;;;;;;;;;;;;;5.44;100.00;97379.81;5034184;28;20004;-69
2021/12/05 01:58:14;;;;;;;;;;;;;;;5.92;100.00;97375.44;4968231;28;19922;-68
2021/12/05 02:01:26;;;;;;;;;;;;;;;5.68;100.00;97365.31;4974613;28;19918;-69
2021/12/05 02:07:53;;;;;;;;;;;;;;;5.47;100.00;97366.09;4978595;28;19922;-69
2021/12/05 02:37:02;;;;;;;;;;;;;;;5.42;100.00;97366.28;5023108;28;19936;-67
2021/12/05 02:42:07;;;;;;;;;;;;;;;5.57;100.00;97367.44;5048276;28;19919;-69
2021/12/05 02:44:33;;;;;;;;;;;;;;;5.45;100.00;97371.25;5046504;28;20404;-69
2021/12/05 02:47:04;;;;;;;;;;;;;;;5.30;100.00;97365.03;5048582;28;19921;-69
2021/12/05 02:49:31;;;;;;;;;;;;;;;5.35;100.00;97370.78;5031416;28;20011;-69
2021/12/05 02:52:00;;;;;;;;;;;;;;;5.54;100.00;97372.66;5039034;28;19940;-69
2021/12/05 02:54:27;;;;;;;;;;;;;;;5.48;100.00;97375.44;5031104;28;19913;-69
2021/12/05 02:56:53;;;;;;;;;;;;;;;5.54;100.00;97372.66;5048771;28;19935;-69
2021/12/05 02:59:41;;;;;;;;;;;;;;;5.55;100.00;97372.59;5030971;28;19966;-69
2021/12/05 03:02:12;;;;;;;;;;;;;;;5.22;100.00;97372.13;5034219;28;19916;-69
2021/12/05 03:04:40;;;;;;;;;;;;;;;5.15;100.00;97373.25;5049179;28;19959;-69
2021/12/05 03:07:07;;;;;;;;;;;;;;;5.60;100.00;97374.97;5048814;28;20382;-69
2021/12/05 03:09:33;;;;;;;;;;;;;;;5.42;100.00;97368.84;5031320;28;19927;-69
2021/12/05 03:11:58;;;;;;;;;;;;;;;5.17;100.00;97362.09;5048703;28;20011;-69
2021/12/05 03:14:24;;;;;;;;;;;;;;;5.15;100.00;97368.13;5048705;28;19913;-69
2021/12/05 03:16:50;;;;;;;;;;;;;;;4.91;100.00;97375.78;5030215;28;20443;-69
2021/12/05 03:19:15;;;;;;;;;;;;;;;5.47;100.00;97368.66;5048961;28;19914;-69
2021/12/05 03:21:41;;;;;;;;;;;;;;;4.54;100.00;97377.06;5030981;28;20076;-69
2021/12/05 03:24:07;;;;;;;;;;;;;;;4.27;100.00;97393.28;5048780;28;19916;-69
2021/12/05 03:26:34;;;;;;;;;;;;;;;4.94;100.00;97395.25;5048651;28;19923;-69
2021/12/05 03:29:00;;;;;;;;;;;;;;;5.05;100.00;97397.44;5048588;28;19940;-69
2021/12/05 03:31:26;;;;;;;;;;;;;;;5.17;100.00;97392.69;5048479;28;19913;-69
2021/12/05 03:33:52;;;;;;;;;;;;;;;5.36;100.00;97400.53;5048539;28;19928;-69
2021/12/05 03:36:18;;;;;;;;;;;;;;;5.33;100.00;97390.44;5047598;28;19972;-69
2021/12/05 03:38:44;;;;;;;;;;;;;;;4.86;100.00;97395.53;5039032;28;19960;-68
2021/12/05 03:41:10;;;;;;;;;;;;;;;5.47;100.00;97395.00;5000741;28;19909;-68
2021/12/05 03:43:36;;;;;;;;;;;;;;;5.35;100.00;97395.47;5038125;28;19924;-68
2021/12/05 03:46:02;;;;;;;;;;;;;;;5.39;100.00;97385.09;5041737;28;19936;-68
2021/12/05 03:48:30;;;;;;;;;;;;;;;5.14;100.00;97397.09;5041704;28;19917;-68
2021/12/05 03:50:55;;;;;;;;;;;;;;;5.02;100.00;97394.09;5041371;28;19952;-68
2021/12/05 03:53:21;;;;;;;;;;;;;;;5.14;100.00;97403.03;5041817;28;19995;-68
2021/12/05 03:55:48;;;;;;;;;;;;;;;4.95;100.00;97400.31;5041791;28;20212;-68
2021/12/05 03:58:14;;;;;;;;;;;;;;;4.79;100.00;97404.28;5041804;28;19916;-68
2021/12/05 04:00:41;;;;;;;;;;;;;;;4.74;100.00;97408.69;5023549;28;19931;-68
2021/12/05 04:03:07;;;;;;;;;;;;;;;5.14;100.00;97397.94;5040700;28;19966;-68
2021/12/05 04:05:34;;;;;;;;;;;;;;;5.09;100.00;97399.00;5041406;28;19959;-68
2021/12/05 04:08:00;;;;;;;;;;;;;;;4.83;100.00;97403.28;5041871;28;20287;-68
2021/12/05 04:10:27;;;;;;;;;;;;;;;5.19;100.00;97402.88;5041979;28;19970;-67
2021/12/05 04:12:53;;;;;;;;;;;;;;;5.47;100.00;97394.19;5030234;28;19913;-68
2021/12/05 04:15:19;;;;;;;;;;;;;;;4.87;100.00;97398.91;5050357;28;20416;-68
2021/12/05 04:17:45;;;;;;;;;;;;;;;5.36;100.00;97408.19;5028304;28;20969;-67
2021/12/05 04:20:11;;;;;;;;;;;;;;;5.17;100.00;97402.09;5023287;28;19913;-67
2021/12/05 04:22:37;;;;;;;;;;;;;;;5.22;100.00;97401.03;5041306;28;20378;-67
2021/12/05 04:25:07;;;;;;;;;;;;;;;5.15;100.00;97408.97;5041358;28;19921;-67
2021/12/05 04:27:33;;;;;;;;;;;;;;;5.26;100.00;97404.31;5039645;28;19971;-67
2021/12/05 04:30:05;;;;;;;;;;;;;;;4.71;100.00;97407.06;5040095;28;19920;-69
2021/12/05 04:32:36;;;;;;;;;;;;;;;4.96;100.00;97409.63;5044118;28;19917;-68
2021/12/05 04:35:08;;;;;;;;;;;;;;;5.36;100.00;97413.31;5038855;28;19955;-68
2021/12/05 04:37:37;;;;;;;;;;;;;;;5.61;100.00;97412.38;5041449;28;19956;-68
2021/12/05 04:40:06;;;;;;;;;;;;;;;5.58;100.00;97404.84;5040908;28;20014;-68
2021/12/05 04:42:37;;;;;;;;;;;;;;;5.64;100.00;97410.56;5041282;28;20404;-68
2021/12/05 04:45:06;;;;;;;;;;;;;;;5.45;100.00;97407.88;5039993;28;19921;-66
2021/12/05 04:47:34;;;;;;;;;;;;;;;5.50;100.00;97415.34;5040728;28;19928;-67
2021/12/05 04:50:00;;;;;;;;;;;;;;;5.41;100.00;97408.84;5041003;28;19921;-68
2021/12/05 04:52:25;;;;;;;;;;;;;;;5.51;100.00;97417.00;5039705;28;19940;-68
2021/12/05 04:54:50;;;;;;;;;;;;;;;5.50;100.00;97414.53;5041570;28;19924;-68
2021/12/05 04:57:16;;;;;;;;;;;;;;;5.49;100.00;97412.84;5021055;28;19917;-68
2021/12/05 04:59:47;;;;;;;;;;;;;;;5.62;100.00;97417.44;5039802;28;19959;-67
2021/12/05 05:02:13;;;;;;;;;;;;;;;5.36;100.00;97413.31;5040619;28;20366;-68
2021/12/05 05:04:42;;;;;;;;;;;;;;;5.68;100.00;97410.41;5040123;28;19916;-68
2021/12/05 05:07:14;;;;;;;;;;;;;;;5.06;100.00;97411.84;5040717;28;19921;-68
2021/12/05 05:09:39;;;;;;;;;;;;;;;5.34;100.00;97420.19;5040833;28;19970;-68
2021/12/05 05:12:05;;;;;;;;;;;;;;;5.54;100.00;97416.06;5040583;28;20289;-68
2021/12/05 05:14:30;;;;;;;;;;;;;;;5.41;100.00;97411.41;5039805;28;20027;-68
2021/12/05 05:16:55;;;;;;;;;;;;;;;5.25;100.00;97415.41;5037694;28;19917;-68
2021/12/05 05:19:26;;;;;;;;;;;;;;;5.29;100.00;97411.00;5040977;28;19977;-68
2021/12/05 05:43:31;;;;;;;;;;;;;;;4.99;100.00;97445.22;4977227;28;20346;-68
2021/12/05 05:51:07;;;;;;;;;;;;;;;5.16;100.00;97441.25;4978136;28;19973;-68
2021/12/05 05:53:32;;;;;;;;;;;;;;;5.26;100.00;97441.75;4978470;28;19918;-68
2021/12/05 05:55:58;;;;;;;;;;;;;;;4.94;100.00;97436.91;4977868;28;20092;-68
2021/12/05 05:58:38;;;;;;;;;;;;;;;4.88;100.00;97439.69;4977039;28;20450;-68
2021/12/05 06:01:05;;;;;;;;;;;;;;;5.01;100.00;97440.06;4977575;28;20040;-68
2021/12/05 06:03:30;;;;;;;;;;;;;;;5.15;100.00;97442.13;4985146;28;19967;-67
2021/12/05 06:06:00;;;;;;;;;;;;;;;5.07;100.00;97441.59;5018721;28;19996;-68
2021/12/05 06:08:27;;;;;;;;;;;;;;;5.10;100.00;97442.28;5014399;28;19917;-68
2021/12/05 06:10:54;;;;;;;;;;;;;;;5.01;100.00;97432.41;5018476;28;19921;-68
2021/12/05 06:13:19;;;;;;;;;;;;;;;5.17;100.00;97440.38;5018241;28;19996;-68
2021/12/05 06:15:46;;;;;;;;;;;;;;;5.30;100.00;97436.50;5019063;28;20422;-67
2021/12/05 06:18:11;;;;;;;;;;;;;;;5.28;100.00;97443.38;5020303;28;19928;-68
2021/12/05 06:20:36;;;;;;;;;;;;;;;5.27;100.00;97436.63;5019091;28;20396;-68
2021/12/05 06:23:02;;;;;;;;;;;;;;;5.29;100.00;97444.19;5019463;28;19917;-68
2021/12/05 06:25:28;;;;;;;;;;;;;;;5.32;100.00;97447.47;5019384;28;19929;-67
2021/12/05 06:28:00;;;;;;;;;;;;;;;5.32;100.00;97452.59;5018284;28;19979;-68
2021/12/05 06:46:39;;;;;;;;;;;;;;;5.12;100.00;97467.78;5039746;28;20042;-67
2021/12/05 06:49:05;;;;;;;;;;;;;;;4.95;100.00;97475.97;5039646;28;20341;-68
2021/12/05 06:51:30;;;;;;;;;;;;;;;4.78;100.00;97481.66;5039081;28;19913;-68
2021/12/05 06:53:56;;;;;;;;;;;;;;;4.85;100.00;97483.13;5039159;28;19958;-67
2021/12/05 06:56:21;;;;;;;;;;;;;;;4.74;100.00;97480.91;5035661;28;20026;-67
2021/12/05 06:58:47;;;;;;;;;;;;;;;4.52;100.00;97495.28;5038664;28;19924;-68
2021/12/05 07:01:13;;;;;;;;;;;;;;;4.68;100.00;97501.53;5020642;28;19917;-68
2021/12/05 07:03:48;;;;;;;;;;;;;;;4.73;100.00;97503.94;5035831;28;20439;-67
2021/12/05 07:06:30;;;;;;;;;;;;;;;4.54;100.00;97507.09;5036662;28;19974;-68
2021/12/05 07:09:00;;;;;;;;;;;;;;;4.74;100.00;97520.91;5037906;28;19973;-67
2021/12/05 07:11:28;;;;;;;;;;;;;;;4.68;100.00;97516.00;5036637;28;19916;-67
2021/12/05 07:16:37;;;;;;;;;;;;;;;4.66;100.00;97516.06;5038496;28;19997;-67
2021/12/05 07:40:24;;;;;;;;;;;;;;;4.88;100.00;97521.31;5042472;28;19975;-68
2021/12/05 07:42:52;;;;;;;;;;;;;;;4.67;100.00;97519.44;5042189;28;19925;-67
2021/12/05 07:45:22;;;;;;;;;;;;;;;4.72;100.00;97523.50;5037265;28;19927;-68
2021/12/05 07:47:51;;;;;;;;;;;;;;;4.74;100.00;97518.34;5040245;28;19931;-68
2021/12/05 07:50:17;;;;;;;;;;;;;;;4.77;100.00;97521.63;5041292;28;19921;-68
2021/12/05 07:52:47;;;;;;;;;;;;;;;4.89;100.00;97524.69;5040802;28;20031;-68
2021/12/05 07:55:28;;;;;;;;;;;;;;;5.10;100.00;97526.50;5023549;28;19927;-67
2021/12/05 08:00:53;;;;;;;;;;;;;;;4.73;100.00;97535.38;5023039;28;20372;-68
2021/12/05 08:14:42;;;;;;;;;;;;;;;4.88;100.00;97563.81;5043610;28;20328;-66
2021/12/05 08:17:14;;;;;;;;;;;;;;;4.97;100.00;97559.25;5042898;28;20419;-68
2021/12/05 08:19:40;;;;;;;;;;;;;;;4.95;100.00;97567.81;5041901;28;20309;-67
2021/12/05 08:22:06;;;;;;;;;;;;;;;5.14;100.00;97565.53;5043396;28;19917;-67
2021/12/05 08:24:38;;;;;;;;;;;;;;;5.28;100.00;97565.88;5042867;28;19925;-66
2021/12/05 08:27:05;;;;;;;;;;;;;;;5.51;100.00;97569.38;5043858;28;20039;-68
2021/12/05 08:29:57;;;;;;;;;;;;;;;5.38;100.00;97569.81;5042747;28;20447;-69
2021/12/05 08:35:25;;;;;;;;;;;;;;;5.23;100.00;97576.25;5037720;28;19955;-69
2021/12/05 08:43:34;;;;;;;;;;;;;;;5.32;100.00;97604.91;5041901;28;19928;-69
2021/12/05 08:46:18;;;;;;;;;;;;;;;5.34;100.00;97609.09;5040797;28;19924;-69
2021/12/05 09:24:35;;;;;;;;;;;;;;;5.16;100.00;97630.94;4978001;28;19953;-69
2021/12/05 09:27:46;;;;;;;;;;;;;;;5.30;100.00;97635.59;5036437;28;19924;-69
2021/12/05 10:13:31;;;;;;;;;;;;;;;6.67;100.00;97652.06;4937027;28;19941;-69
2021/12/05 10:34:51;;;;;;;;;;;;;;;7.21;100.00;97650.00;4974936;28;20315;-68
2021/12/05 10:37:21;;;;;;;;;;;;;;;7.24;100.00;97646.47;4974134;28;19929;-68
2021/12/05 10:39:47;;;;;;;;;;;;;;;7.03;100.00;97655.84;5037888;28;20829;-69
2021/12/05 10:42:34;;;;;;;;;;;;;;;7.38;100.00;97659.53;5016772;28;19931;-68
2021/12/05 10:45:00;;;;;;;;;;;;;;;7.40;100.00;97662.03;5037637;28;19966;-68
2021/12/05 10:47:34;;;;;;;;;;;;;;;7.61;100.00;97652.63;5038092;28;19921;-68
2021/12/05 10:50:20;;;;;;;;;;;;;;;7.66;100.00;97650.72;5038783;28;20077;-68
2021/12/05 10:52:46;;;;;;;;;;;;;;;7.95;100.00;97650.31;5035253;28;20433;-69
2021/12/05 10:55:11;;;;;;;;;;;;;;;8.16;100.00;97655.41;5041792;28;19925;-69
2021/12/05 10:57:41;;;;;;;;;;;;;;;7.80;100.00;97656.09;5041701;28;19932;-69
2021/12/05 11:00:13;;;;;;;;;;;;;;;8.23;100.00;97649.09;5023819;28;19916;-68
2021/12/05 11:02:38;;;;;;;;;;;;;;;8.23;100.00;97658.53;5038150;28;19920;-67
2021/12/05 11:05:04;;;;;;;;;;;;;;;7.95;100.00;97652.88;5041182;28;19916;-68
2021/12/05 11:07:35;;;;;;;;;;;;;;;8.10;100.00;97658.25;5039587;28;19917;-68
2021/12/05 11:10:02;;;;;;;;;;;;;;;8.57;100.00;97668.16;5041359;28;19917;-69
2021/12/05 11:12:35;;;;;;;;;;;;;;;8.14;100.00;97654.63;5040748;28;19921;-68
2021/12/05 11:15:11;;;;;;;;;;;;;;;7.40;100.00;97668.00;5041471;28;20386;-70
2021/12/05 11:17:38;;;;;;;;;;;;;;;7.82;100.00;97669.66;5039843;28;20031;-68
2021/12/05 11:20:09;;;;;;;;;;;;;;;8.69;100.00;97670.16;5037565;28;20443;-69
2021/12/05 11:22:34;;;;;;;;;;;;;;;8.29;100.00;97671.09;5038784;28;19916;-69
2021/12/05 11:25:03;;;;;;;;;;;;;;;8.94;100.00;97667.31;5037165;28;20781;-69
2021/12/05 11:27:30;;;;;;;;;;;;;;;7.99;100.00;97670.69;5035111;28;19971;-68
2021/12/05 11:30:09;;;;;;;;;;;;;;;8.46;100.00;97665.22;5036578;28;20595;-68
2021/12/05 11:32:41;;;;;;;;;;;;;;;8.50;100.00;97677.03;5041332;28;20491;-65
2021/12/05 11:35:09;;;;;;;;;;;;;;;7.69;100.00;97669.38;5037675;28;19990;-66
2021/12/05 11:37:47;;;;;;;;;;;;;;;8.00;100.00;97675.75;5025019;28;20780;-66
2021/12/05 11:40:13;;;;;;;;;;;;;;;8.49;100.00;97665.94;5025911;28;19914;-66
2021/12/05 11:42:49;;;;;;;;;;;;;;;8.68;100.00;97665.94;5023037;28;19920;-65
2021/12/05 11:45:16;;;;;;;;;;;;;;;9.20;100.00;97658.34;5024407;28;20387;-66
2021/12/05 11:47:42;;;;;;;;;;;;;;;8.66;100.00;97661.78;5022073;28;19932;-66
2021/12/05 11:50:07;;;;;;;;;;;;;;;8.07;100.00;97655.81;5025490;28;20356;-65
2021/12/05 11:52:39;;;;;;;;;;;;;;;8.35;100.00;97663.97;5023716;28;19917;-65
2021/12/05 11:55:06;;;;;;;;;;;;;;;8.45;100.00;97661.00;5024904;28;19966;-66
2021/12/05 11:57:31;;;;;;;;;;;;;;;9.28;100.00;97667.41;5026762;28;19952;-65
2021/12/05 11:59:58;;;;;;;;;;;;;;;8.87;100.00;97671.06;5027236;28;19956;-66
2021/12/05 12:02:34;;;;;;;;;;;;;;;8.45;100.00;97668.72;5003875;28;19917;-68
2021/12/05 12:05:02;;;;;;;;;;;;;;;8.75;100.00;97672.44;5019516;28;19948;-68
2021/12/05 12:07:35;;;;;;;;;;;;;;;8.74;100.00;97668.22;5022381;28;19929;-67
2021/12/05 12:10:18;;;;;;;;;;;;;;;8.38;100.00;97671.50;5002589;28;20008;-67
2021/12/05 12:12:45;;;;;;;;;;;;;;;8.83;100.00;97668.72;5020421;28;19921;-66
2021/12/05 12:15:10;;;;;;;;;;;;;;;7.90;100.00;97667.63;5019749;28;19971;-66
2021/12/05 12:17:36;;;;;;;;;;;;;;;7.48;100.00;97680.47;5020948;28;20434;-65
2021/12/05 12:20:04;;;;;;;;;;;;;;;8.09;100.00;97667.66;5020587;28;20367;-66
2021/12/05 12:22:30;;;;;;;;;;;;;;;7.89;100.00;97681.34;5021282;28;20984;-66
2021/12/05 12:25:04;;;;;;;;;;;;;;;7.96;100.00;97672.50;5022405;28;19920;-65
2021/12/05 12:27:30;;;;;;;;;;;;;;;8.14;100.00;97675.16;5023148;28;20424;-68
2021/12/05 12:29:58;;;;;;;;;;;;;;;7.99;100.00;97670.69;5018496;28;20003;-67
2021/12/05 12:32:29;;;;;;;;;;;;;;;8.37;100.00;97682.69;5000119;28;19917;-67
2021/12/05 12:35:04;;;;;;;;;;;;;;;8.06;100.00;97677.22;5021015;28;20293;-67
2021/12/05 12:37:30;;;;;;;;;;;;;;;7.50;100.00;97684.66;5037574;28;20378;-67
2021/12/05 12:39:55;;;;;;;;;;;;;;;7.44;100.00;97695.16;5040432;28;19921;-67
2021/12/05 12:42:23;;;;;;;;;;;;;;;7.29;100.00;97700.88;5019773;28;20535;-67
2021/12/05 12:45:18;;;;;;;;;;;;;;;7.46;100.00;97695.94;5040635;28;20009;-66
2021/12/05 12:47:43;;;;;;;;;;;;;;;7.80;100.00;97694.56;5031124;28;19921;-66
2021/12/05 12:50:20;;;;;;;;;;;;;;;8.28;100.00;97689.94;5039494;28;20379;-67
2021/12/05 12:52:56;;;;;;;;;;;;;;;7.75;100.00;97701.56;5038932;28;20392;-67
2021/12/05 12:55:21;;;;;;;;;;;;;;;8.29;100.00;97702.69;5039325;28;20003;-67
2021/12/05 12:57:46;;;;;;;;;;;;;;;8.45;100.00;97696.94;5037584;28;20016;-67
2021/12/05 13:00:15;;;;;;;;;;;;;;;8.12;100.00;97707.75;5038583;28;19921;-67
2021/12/05 13:10:51;;;;;;;;;;;;;;;8.12;100.00;97712.88;5043430;28;19983;-67
2021/12/05 13:13:20;;;;;;;;;;;;;;;8.00;100.00;97718.50;5047501;28;19913;-67
2021/12/05 13:15:47;;;;;;;;;;;;;;;8.45;100.00;97720.03;5048936;28;19920;-67
2021/12/05 13:18:13;;;;;;;;;;;;;;;8.53;100.00;97723.06;5048920;28;19932;-66
2021/12/05 13:20:41;;;;;;;;;;;;;;;8.00;100.00;97728.75;5048718;28;19924;-67
2021/12/05 13:23:08;;;;;;;;;;;;;;;8.28;100.00;97729.25;5048144;28;20791;-66
2021/12/05 13:25:36;;;;;;;;;;;;;;;8.22;100.00;97734.63;5049393;28;19916;-67
2021/12/05 13:28:20;;;;;;;;;;;;;;;8.67;100.00;97728.44;5048832;28;20028;-67
2021/12/05 13:30:47;;;;;;;;;;;;;;;8.61;100.00;97731.25;5047289;28;19923;-66
2021/12/05 13:33:19;;;;;;;;;;;;;;;8.11;100.00;97734.25;5031949;28;19917;-66
2021/12/05 13:35:45;;;;;;;;;;;;;;;7.70;100.00;97741.94;5047059;28;19921;-67
2021/12/05 13:38:30;;;;;;;;;;;;;;;7.82;100.00;97745.72;5048667;28;19970;-68
2021/12/05 13:40:56;;;;;;;;;;;;;;;7.64;100.00;97750.72;5049696;28;19920;-66
2021/12/05 13:43:28;;;;;;;;;;;;;;;7.69;100.00;97741.13;5031251;28;19921;-67
2021/12/05 13:45:56;;;;;;;;;;;;;;;7.86;100.00;97747.28;5051042;28;20386;-67
2021/12/05 13:48:29;;;;;;;;;;;;;;;8.06;100.00;97749.00;5048462;28;19920;-67
2021/12/05 13:50:58;;;;;;;;;;;;;;;8.10;100.00;97745.44;5048996;28;19920;-66
2021/12/05 13:53:26;;;;;;;;;;;;;;;8.43;100.00;97747.47;5048445;28;19916;-67
2021/12/05 13:55:58;;;;;;;;;;;;;;;8.69;100.00;97744.59;5049309;28;19920;-66
2021/12/05 13:58:34;;;;;;;;;;;;;;;8.42;100.00;97750.94;5049529;28;19913;-67
2021/12/05 14:01:11;;;;;;;;;;;;;;;8.61;100.00;97749.22;5047697;28;20507;-67
2021/12/05 14:03:51;;;;;;;;;;;;;;;8.92;100.00;97745.31;5048771;28;19913;-67
2021/12/05 14:06:23;;;;;;;;;;;;;;;8.64;100.00;97749.09;5049833;28;19921;-67
2021/12/05 14:08:49;;;;;;;;;;;;;;;8.72;100.00;97754.72;5049126;28;19962;-67
2021/12/05 14:11:14;;;;;;;;;;;;;;;8.64;100.00;97766.22;5049073;28;20779;-67
2021/12/05 14:13:40;;;;;;;;;;;;;;;7.83;100.00;97776.44;5048930;28;20297;-67
2021/12/05 14:16:05;;;;;;;;;;;;;;;8.00;100.00;97782.59;5046522;28;19920;-67
2021/12/05 14:18:30;;;;;;;;;;;;;;;8.56;100.00;97779.41;5048827;28;19920;-66
2021/12/05 14:21:09;;;;;;;;;;;;;;;8.93;100.00;97775.19;5048581;28;19917;-66
2021/12/05 14:23:34;;;;;;;;;;;;;;;8.07;100.00;97782.25;5047373;28;19917;-66
2021/12/05 14:26:11;;;;;;;;;;;;;;;8.23;100.00;97794.44;5048918;28;19925;-65
2021/12/05 14:28:37;;;;;;;;;;;;;;;7.88;100.00;97802.69;5048056;28;19929;-67
2021/12/05 14:31:02;;;;;;;;;;;;;;;7.68;100.00;97802.66;5048512;28;19923;-67
2021/12/05 14:33:27;;;;;;;;;;;;;;;7.88;100.00;97810.38;5046341;28;19961;-67
2021/12/05 14:35:53;;;;;;;;;;;;;;;7.20;100.00;97809.59;5048548;28;19921;-67
2021/12/05 14:38:18;;;;;;;;;;;;;;;7.70;100.00;97818.81;5048356;28;19925;-65
2021/12/05 14:40:43;;;;;;;;;;;;;;;7.58;100.00;97819.31;5029290;28;19987;-67
2021/12/05 14:43:10;;;;;;;;;;;;;;;7.37;100.00;97832.03;5048427;28;20439;-67
2021/12/05 14:45:37;;;;;;;;;;;;;;;7.20;100.00;97836.94;5048110;28;20362;-67
2021/12/05 14:48:03;;;;;;;;;;;;;;;7.30;100.00;97840.84;5048673;28;20293;-67
2021/12/05 14:50:32;;;;;;;;;;;;;;;7.03;100.00;97847.81;5030850;28;19912;-66
2021/12/05 14:53:00;;;;;;;;;;;;;;;7.61;100.00;97849.91;5046673;28;19916;-68
2021/12/05 14:55:27;;;;;;;;;;;;;;;7.31;100.00;97857.88;5029159;28;19971;-67
2021/12/05 14:57:54;;;;;;;;;;;;;;;7.47;100.00;97861.53;5048637;28;19916;-66
2021/12/05 15:00:23;;;;;;;;;;;;;;;7.56;100.00;97864.63;5047774;28;20451;-67
2021/12/05 15:02:49;;;;;;;;;;;;;;;7.24;100.00;97861.56;5046445;28;19913;-67
2021/12/05 15:05:15;;;;;;;;;;;;;;;7.38;100.00;97869.56;5047227;28;19987;-66
2021/12/05 15:07:41;;;;;;;;;;;;;;;6.89;100.00;97881.59;5048857;28;19916;-67
2021/12/05 15:10:06;;;;;;;;;;;;;;;6.73;100.00;97870.19;5048016;28;20011;-67
2021/12/05 15:12:32;;;;;;;;;;;;;;;6.45;100.00;97882.22;5047962;28;19912;-66
2021/12/05 15:14:59;;;;;;;;;;;;;;;6.44;100.00;97889.94;5047826;28;20029;-68
2021/12/05 15:17:26;;;;;;;;;;;;;;;6.30;100.00;97905.72;5047136;28;20286;-67
2021/12/05 15:19:55;;;;;;;;;;;;;;;6.48;100.00;97912.81;5046996;28;19917;-66
2021/12/05 15:22:21;;;;;;;;;;;;;;;6.49;100.00;97918.75;5046960;28;19963;-67
2021/12/05 15:24:54;;;;;;;;;;;;;;;6.27;100.00;97924.56;5047667;28;19981;-68
2021/12/05 15:27:21;;;;;;;;;;;;;;;6.25;100.00;97923.78;5046885;28;20501;-67
2021/12/05 15:29:49;;;;;;;;;;;;;;;6.56;100.00;97940.66;5046621;28;20006;-67
2021/12/05 15:32:16;;;;;;;;;;;;;;;6.41;100.00;97936.03;5046919;28;20385;-67
2021/12/05 15:34:41;;;;;;;;;;;;;;;6.53;100.00;97939.97;5026186;28;19924;-66
2021/12/05 15:37:09;;;;;;;;;;;;;;;6.34;100.00;97948.22;5028109;28;19924;-66
2021/12/05 15:39:34;;;;;;;;;;;;;;;6.44;100.00;97956.44;5025095;28;20401;-65
2021/12/05 15:42:00;;;;;;;;;;;;;;;6.23;100.00;97951.09;5030584;28;19917;-65
2021/12/05 15:44:25;;;;;;;;;;;;;;;6.17;100.00;97958.97;5029166;28;19913;-66
2021/12/05 15:46:58;;;;;;;;;;;;;;;5.97;100.00;97974.06;5029707;28;19921;-66
2021/12/05 15:49:25;;;;;;;;;;;;;;;6.28;100.00;97966.31;5030129;28;19917;-67
2021/12/05 15:51:58;;;;;;;;;;;;;;;6.43;100.00;97970.09;5029615;28;19921;-67
2021/12/05 15:54:23;;;;;;;;;;;;;;;6.41;100.00;97972.72;5030044;28;20008;-67
2021/12/05 15:56:49;;;;;;;;;;;;;;;6.44;100.00;97976.88;5030563;28;20699;-66
2021/12/05 15:59:18;;;;;;;;;;;;;;;6.39;100.00;97973.66;5013255;28;19924;-66
2021/12/05 16:01:43;;;;;;;;;;;;;;;6.18;100.00;97991.31;5031153;28;20360;-67
2021/12/05 16:04:19;;;;;;;;;;;;;;;5.97;100.00;97999.63;5030980;28;19952;-67
2021/12/05 16:06:44;;;;;;;;;;;;;;;6.10;100.00;98000.94;5029557;28;19941;-67
2021/12/05 16:09:14;;;;;;;;;;;;;;;5.92;100.00;98001.44;5029499;28;20408;-66
2021/12/05 16:11:39;;;;;;;;;;;;;;;6.49;100.00;98001.41;5030087;28;20374;-67
2021/12/05 16:14:05;;;;;;;;;;;;;;;6.28;100.00;98012.31;5031025;28;20003;-66
2021/12/05 16:16:30;;;;;;;;;;;;;;;6.47;100.00;98008.31;5030839;28;20374;-67
2021/12/05 16:18:57;;;;;;;;;;;;;;;6.06;100.00;98012.13;5030087;28;19913;-67
2021/12/05 16:21:26;;;;;;;;;;;;;;;6.22;100.00;98021.00;5030622;28;19914;-66
2021/12/05 16:23:52;;;;;;;;;;;;;;;6.33;100.00;98020.69;5030938;28;19997;-65
2021/12/05 16:26:21;;;;;;;;;;;;;;;6.31;100.00;98019.91;5012062;28;19931;-67
2021/12/05 16:28:49;;;;;;;;;;;;;;;6.49;100.00;98026.16;5028332;28;19917;-65
2021/12/05 16:31:14;;;;;;;;;;;;;;;6.11;100.00;98023.03;5028842;28;20382;-66
2021/12/05 16:33:40;;;;;;;;;;;;;;;6.21;100.00;98021.91;5028987;28;19913;-67
2021/12/05 16:36:06;;;;;;;;;;;;;;;6.53;100.00;98016.69;5037363;28;19924;-67
2021/12/05 16:38:39;;;;;;;;;;;;;;;6.76;100.00;98013.38;5031170;28;20340;-67
2021/12/05 16:41:15;;;;;;;;;;;;;;;6.61;100.00;98015.53;5045856;28;19912;-67
2021/12/05 16:43:49;;;;;;;;;;;;;;;6.41;100.00;98023.00;5030384;28;20589;-67
2021/12/05 16:46:16;;;;;;;;;;;;;;;6.78;100.00;98022.69;5048480;28;19983;-68
2021/12/05 16:48:42;;;;;;;;;;;;;;;6.70;100.00;98020.38;5051992;22;19971;-76
2021/12/05 16:51:23;;;;;;;;;;;;;;;6.67;100.00;98028.13;4999306;28;19976;-76
2021/12/05 16:53:50;;;;;;;;;;;;;;;6.31;100.00;98036.97;4973597;28;20031;-75
2021/12/05 16:56:38;;;;;;;;;;;;;;;6.33;100.00;98032.66;5005099;28;20093;-75
2021/12/05 16:59:15;;;;;;;;;;;;;;;6.71;100.00;98036.56;4984121;28;20382;-75
2021/12/05 17:01:41;;;;;;;;;;;;;;;6.55;100.00;98036.22;4983322;28;19924;-76
2021/12/05 17:04:06;;;;;;;;;;;;;;;6.51;100.00;98044.88;4984705;28;20008;-76
2021/12/05 17:06:52;;;;;;;;;;;;;;;6.67;100.00;98046.03;5010347;28;19932;-76
2021/12/05 17:09:18;;;;;;;;;;;;;;;6.55;100.00;98046.44;5012912;28;19916;-76
2021/12/05 17:11:44;;;;;;;;;;;;;;;6.58;100.00;98043.78;5010792;28;19963;-76
2021/12/05 17:14:18;;;;;;;;;;;;;;;6.44;100.00;98045.94;5009466;28;20571;-76
2021/12/05 17:16:43;;;;;;;;;;;;;;;6.69;100.00;98049.41;5010292;28;20298;-76
2021/12/05 17:19:12;;;;;;;;;;;;;;;7.04;100.00;98049.97;4985053;28;19970;-76
2021/12/05 17:21:40;;;;;;;;;;;;;;;6.35;100.00;98051.34;4968477;28;19968;-76
2021/12/05 17:24:08;;;;;;;;;;;;;;;7.27;100.00;98056.06;5011514;28;19979;-76
2021/12/05 17:26:34;;;;;;;;;;;;;;;7.64;100.00;98050.50;4989054;28;19975;-75
2021/12/05 17:29:09;;;;;;;;;;;;;;;7.57;100.00;98048.19;5015659;28;19928;-76
2021/12/05 17:31:38;;;;;;;;;;;;;;;7.17;100.00;98057.28;4975542;28;19967;-74
2021/12/05 17:34:18;;;;;;;;;;;;;;;7.11;100.00;98056.56;4971091;28;19924;-74
2021/12/05 17:36:44;;;;;;;;;;;;;;;7.39;100.00;98065.03;4987726;28;19999;-75
2021/12/05 17:39:14;;;;;;;;;;;;;;;6.85;100.00;98067.66;4985641;28;19924;-75
2021/12/05 17:41:40;;;;;;;;;;;;;;;6.95;100.00;98070.75;4985440;28;20298;-75
2021/12/05 17:44:06;;;;;;;;;;;;;;;7.09;100.00;98078.84;4969236;28;20000;-75
2021/12/05 17:46:32;;;;;;;;;;;;;;;7.25;100.00;98073.19;5014874;28;20015;-75
2021/12/05 17:48:58;;;;;;;;;;;;;;;7.63;100.00;98078.75;5012673;28;20394;-75
2021/12/05 17:51:32;;;;;;;;;;;;;;;7.56;100.00;98082.41;4990375;28;19948;-75
2021/12/05 17:53:58;;;;;;;;;;;;;;;7.67;100.00;98077.75;5010829;28;20540;-75
2021/12/05 17:57:04;;;;;;;;;;;;;;;7.57;100.00;98081.50;5011048;28;19921;-75
2021/12/05 17:59:28;;;;;;;;;;;;;;;7.18;100.00;98076.84;5008269;28;20662;-75
2021/12/05 18:04:41;;;;;;;;;;;;;;;6.24;100.00;98106.16;5014841;28;19920;-75
2021/12/05 18:07:07;;;;;;;;;;;;;;;7.24;100.00;98104.81;5005881;28;20390;-75
2021/12/05 18:09:33;;;;;;;;;;;;;;;7.32;100.00;98102.81;5011902;28;19998;-75
2021/12/05 18:11:58;;;;;;;;;;;;;;;7.28;100.00;98108.97;5012281;28;20378;-75
2021/12/05 18:14:24;;;;;;;;;;;;;;;7.20;100.00;98108.38;4993540;28;19922;-75
2021/12/05 18:16:49;;;;;;;;;;;;;;;6.65;100.00;98109.22;5008397;28;20007;-75
2021/12/05 18:19:16;;;;;;;;;;;;;;;6.35;100.00;98120.38;4977430;28;19921;-75
2021/12/05 18:21:42;;;;;;;;;;;;;;;5.94;100.00;98124.91;5007901;28;19920;-75